Terminal Aerodrome Forecast
Issued by NWS

Home | Current Version | Previous Version | Text Only | Print | Product List | Glossary On
Versions: 1 2 3 4 5 6 7 8 9 10 11 12 13 14 15 16 17 18 19 20 21 22 23 24 25 26 27 28 29 30 31 32 33 34 35 36 37 38
000
FTUS45 KGJT 301131
TAFEGE
TAF
KEGE 301131Z 3012/3112 13003KT P6SM SKC
     FM301500 00000KT P6SM FEW250
     FM301900 27006KT P6SM FEW120 BKN250
     FM310100 23006KT P6SM SCT120 BKN250
     FM310600 12005KT P6SM SCT120
      AMD LTD TO CLD VIS AND WIND TIL 301300=

USA.gov is the U.S. government's official web portal to all federal, state and local government web resources and services.